sensor_id;sensor_type;location;lat;lon;timestamp;P1;durP1;ratioP1;P2;durP2;ratioP2
6207;SDS011;3137;51.550;7.060;2023-06-04T00:02:01;2.80;;;2.80;;
6207;SDS011;3137;51.550;7.060;2023-06-04T00:04:28;3.80;;;3.00;;
6207;SDS011;3137;51.550;7.060;2023-06-04T00:06:54;3.20;;;3.20;;
6207;SDS011;3137;51.550;7.060;2023-06-04T00:09:21;3.57;;;3.47;;
6207;SDS011;3137;51.550;7.060;2023-06-04T00:11:47;4.60;;;3.17;;
6207;SDS011;3137;51.550;7.060;2023-06-04T00:14:14;3.03;;;2.93;;
6207;SDS011;3137;51.550;7.060;2023-06-04T00:16:41;2.83;;;2.83;;
6207;SDS011;3137;51.550;7.060;2023-06-04T00:19:08;3.07;;;3.07;;
6207;SDS011;3137;51.550;7.060;2023-06-04T00:21:35;3.50;;;3.40;;
6207;SDS011;3137;51.550;7.060;2023-06-04T00:24:01;3.53;;;3.30;;
6207;SDS011;3137;51.550;7.060;2023-06-04T00:26:28;3.30;;;3.20;;
6207;SDS011;3137;51.550;7.060;2023-06-04T00:28:55;3.50;;;3.30;;
6207;SDS011;3137;51.550;7.060;2023-06-04T00:31:21;5.60;;;2.87;;
6207;SDS011;3137;51.550;7.060;2023-06-04T00:33:48;2.80;;;2.80;;
6207;SDS011;3137;51.550;7.060;2023-06-04T00:36:14;2.90;;;2.80;;
6207;SDS011;3137;51.550;7.060;2023-06-04T00:38:41;3.40;;;3.40;;
6207;SDS011;3137;51.550;7.060;2023-06-04T00:41:07;3.30;;;3.20;;
6207;SDS011;3137;51.550;7.060;2023-06-04T00:43:35;3.27;;;2.90;;
6207;SDS011;3137;51.550;7.060;2023-06-04T00:46:02;3.30;;;3.07;;
6207;SDS011;3137;51.550;7.060;2023-06-04T00:48:31;3.83;;;3.57;;
6207;SDS011;3137;51.550;7.060;2023-06-04T00:50:58;3.30;;;3.00;;
6207;SDS011;3137;51.550;7.060;2023-06-04T00:53:25;5.50;;;2.93;;
6207;SDS011;3137;51.550;7.060;2023-06-04T00:55:52;2.93;;;2.90;;
6207;SDS011;3137;51.550;7.060;2023-06-04T00:58:18;2.50;;;2.50;;
6207;SDS011;3137;51.550;7.060;2023-06-04T01:00:46;3.20;;;3.20;;
6207;SDS011;3137;51.550;7.060;2023-06-04T01:03:14;3.47;;;3.10;;
6207;SDS011;3137;51.550;7.060;2023-06-04T01:05:48;2.83;;;2.83;;
6207;SDS011;3137;51.550;7.060;2023-06-04T01:08:19;3.90;;;3.40;;
6207;SDS011;3137;51.550;7.060;2023-06-04T01:10:52;6.80;;;2.60;;
6207;SDS011;3137;51.550;7.060;2023-06-04T01:13:20;3.00;;;3.00;;
6207;SDS011;3137;51.550;7.060;2023-06-04T01:15:46;3.50;;;3.40;;
6207;SDS011;3137;51.550;7.060;2023-06-04T01:18:14;2.83;;;2.73;;
6207;SDS011;3137;51.550;7.060;2023-06-04T01:20:55;3.20;;;3.00;;
6207;SDS011;3137;51.550;7.060;2023-06-04T01:23:26;3.53;;;3.50;;
6207;SDS011;3137;51.550;7.060;2023-06-04T01:26:02;3.60;;;3.40;;
6207;SDS011;3137;51.550;7.060;2023-06-04T01:28:32;3.20;;;3.20;;
6207;SDS011;3137;51.550;7.060;2023-06-04T01:31:00;4.47;;;3.23;;
6207;SDS011;3137;51.550;7.060;2023-06-04T01:33:28;3.97;;;3.70;;
6207;SDS011;3137;51.550;7.060;2023-06-04T01:35:56;2.87;;;2.87;;
6207;SDS011;3137;51.550;7.060;2023-06-04T01:38:23;2.90;;;2.90;;
6207;SDS011;3137;51.550;7.060;2023-06-04T01:40:49;3.10;;;3.10;;
6207;SDS011;3137;51.550;7.060;2023-06-04T01:43:16;3.37;;;3.37;;
6207;SDS011;3137;51.550;7.060;2023-06-04T01:45:43;3.27;;;2.83;;
6207;SDS011;3137;51.550;7.060;2023-06-04T01:48:10;3.07;;;2.97;;
6207;SDS011;3137;51.550;7.060;2023-06-04T01:50:36;2.83;;;2.83;;
6207;SDS011;3137;51.550;7.060;2023-06-04T01:53:03;3.60;;;2.87;;
6207;SDS011;3137;51.550;7.060;2023-06-04T01:55:29;3.17;;;3.17;;
6207;SDS011;3137;51.550;7.060;2023-06-04T01:57:59;3.20;;;3.20;;
6207;SDS011;3137;51.550;7.060;2023-06-04T02:00:26;5.33;;;3.37;;
6207;SDS011;3137;51.550;7.060;2023-06-04T02:02:53;2.97;;;2.63;;
6207;SDS011;3137;51.550;7.060;2023-06-04T02:05:22;3.00;;;3.00;;
6207;SDS011;3137;51.550;7.060;2023-06-04T02:07:48;2.93;;;2.93;;
6207;SDS011;3137;51.550;7.060;2023-06-04T02:10:16;2.70;;;2.70;;
6207;SDS011;3137;51.550;7.060;2023-06-04T02:12:57;3.70;;;3.40;;
6207;SDS011;3137;51.550;7.060;2023-06-04T02:15:26;2.70;;;2.70;;
6207;SDS011;3137;51.550;7.060;2023-06-04T02:17:54;3.50;;;3.50;;
6207;SDS011;3137;51.550;7.060;2023-06-04T02:20:39;3.07;;;3.07;;
6207;SDS011;3137;51.550;7.060;2023-06-04T02:23:05;2.80;;;2.80;;
6207;SDS011;3137;51.550;7.060;2023-06-04T02:25:32;3.20;;;3.20;;
6207;SDS011;3137;51.550;7.060;2023-06-04T02:27:58;8.03;;;3.53;;
6207;SDS011;3137;51.550;7.060;2023-06-04T02:30:24;2.87;;;2.87;;
6207;SDS011;3137;51.550;7.060;2023-06-04T02:32:51;2.77;;;2.77;;
6207;SDS011;3137;51.550;7.060;2023-06-04T02:35:19;3.13;;;3.13;;
6207;SDS011;3137;51.550;7.060;2023-06-04T02:37:47;3.37;;;3.27;;
6207;SDS011;3137;51.550;7.060;2023-06-04T02:40:14;3.30;;;3.20;;
6207;SDS011;3137;51.550;7.060;2023-06-04T02:42:40;3.23;;;2.97;;
6207;SDS011;3137;51.550;7.060;2023-06-04T02:45:06;3.10;;;3.00;;
6207;SDS011;3137;51.550;7.060;2023-06-04T02:47:33;3.10;;;3.10;;
6207;SDS011;3137;51.550;7.060;2023-06-04T02:50:00;4.40;;;3.37;;
6207;SDS011;3137;51.550;7.060;2023-06-04T02:52:26;3.40;;;3.30;;
6207;SDS011;3137;51.550;7.060;2023-06-04T02:54:53;2.87;;;2.87;;
6207;SDS011;3137;51.550;7.060;2023-06-04T02:57:19;3.13;;;2.93;;
6207;SDS011;3137;51.550;7.060;2023-06-04T02:59:46;5.37;;;3.13;;
6207;SDS011;3137;51.550;7.060;2023-06-04T03:02:12;3.23;;;3.13;;
6207;SDS011;3137;51.550;7.060;2023-06-04T03:04:41;3.13;;;3.13;;
6207;SDS011;3137;51.550;7.060;2023-06-04T03:07:08;6.83;;;2.97;;
6207;SDS011;3137;51.550;7.060;2023-06-04T03:09:37;3.40;;;3.30;;
6207;SDS011;3137;51.550;7.060;2023-06-04T03:12:04;3.17;;;3.10;;
6207;SDS011;3137;51.550;7.060;2023-06-04T03:14:31;3.70;;;3.57;;
6207;SDS011;3137;51.550;7.060;2023-06-04T03:16:59;3.23;;;3.23;;
6207;SDS011;3137;51.550;7.060;2023-06-04T03:19:27;3.43;;;3.37;;
6207;SDS011;3137;51.550;7.060;2023-06-04T03:21:54;2.93;;;2.93;;
6207;SDS011;3137;51.550;7.060;2023-06-04T03:24:20;2.83;;;2.83;;
6207;SDS011;3137;51.550;7.060;2023-06-04T03:26:47;3.57;;;3.47;;
6207;SDS011;3137;51.550;7.060;2023-06-04T03:29:13;3.70;;;3.50;;
6207;SDS011;3137;51.550;7.060;2023-06-04T03:31:40;3.65;;;3.65;;
6207;SDS011;3137;51.550;7.060;2023-06-04T03:34:06;3.60;;;3.50;;
6207;SDS011;3137;51.550;7.060;2023-06-04T03:36:35;4.10;;;3.90;;
6207;SDS011;3137;51.550;7.060;2023-06-04T03:39:04;3.67;;;3.57;;
6207;SDS011;3137;51.550;7.060;2023-06-04T03:41:31;3.40;;;3.30;;
6207;SDS011;3137;51.550;7.060;2023-06-04T03:43:57;6.10;;;3.37;;
6207;SDS011;3137;51.550;7.060;2023-06-04T03:46:24;4.07;;;3.97;;
6207;SDS011;3137;51.550;7.060;2023-06-04T03:48:57;3.67;;;3.50;;
6207;SDS011;3137;51.550;7.060;2023-06-04T03:51:26;3.80;;;3.80;;
6207;SDS011;3137;51.550;7.060;2023-06-04T03:53:53;5.70;;;4.00;;
6207;SDS011;3137;51.550;7.060;2023-06-04T03:56:19;3.33;;;3.33;;
6207;SDS011;3137;51.550;7.060;2023-06-04T03:58:47;3.50;;;3.50;;
6207;SDS011;3137;51.550;7.060;2023-06-04T04:01:14;3.77;;;3.73;;
6207;SDS011;3137;51.550;7.060;2023-06-04T04:03:41;3.90;;;3.60;;
6207;SDS011;3137;51.550;7.060;2023-06-04T04:06:09;4.07;;;3.83;;
6207;SDS011;3137;51.550;7.060;2023-06-04T04:08:37;3.67;;;3.37;;
6207;SDS011;3137;51.550;7.060;2023-06-04T04:11:08;4.43;;;4.33;;
6207;SDS011;3137;51.550;7.060;2023-06-04T04:13:34;3.67;;;3.60;;
6207;SDS011;3137;51.550;7.060;2023-06-04T04:16:01;5.57;;;3.70;;
6207;SDS011;3137;51.550;7.060;2023-06-04T04:18:27;4.00;;;3.93;;
6207;SDS011;3137;51.550;7.060;2023-06-04T04:20:54;3.23;;;3.23;;
6207;SDS011;3137;51.550;7.060;2023-06-04T04:23:22;3.40;;;3.40;;
6207;SDS011;3137;51.550;7.060;2023-06-04T04:25:49;3.77;;;3.77;;
6207;SDS011;3137;51.550;7.060;2023-06-04T04:28:16;4.03;;;3.63;;
6207;SDS011;3137;51.550;7.060;2023-06-04T04:30:44;3.90;;;3.60;;
6207;SDS011;3137;51.550;7.060;2023-06-04T04:33:14;4.73;;;3.23;;
6207;SDS011;3137;51.550;7.060;2023-06-04T04:35:45;4.03;;;3.93;;
6207;SDS011;3137;51.550;7.060;2023-06-04T04:38:14;4.30;;;4.20;;
6207;SDS011;3137;51.550;7.060;2023-06-04T04:40:48;3.70;;;3.70;;
6207;SDS011;3137;51.550;7.060;2023-06-04T04:43:15;4.30;;;3.97;;
6207;SDS011;3137;51.550;7.060;2023-06-04T04:45:42;3.67;;;3.67;;
6207;SDS011;3137;51.550;7.060;2023-06-04T04:48:09;4.00;;;3.90;;
6207;SDS011;3137;51.550;7.060;2023-06-04T04:50:36;4.40;;;4.30;;
6207;SDS011;3137;51.550;7.060;2023-06-04T04:53:03;3.80;;;3.77;;
6207;SDS011;3137;51.550;7.060;2023-06-04T04:55:31;4.27;;;4.07;;
6207;SDS011;3137;51.550;7.060;2023-06-04T04:57:57;4.23;;;4.13;;
6207;SDS011;3137;51.550;7.060;2023-06-04T05:00:24;4.87;;;4.50;;
6207;SDS011;3137;51.550;7.060;2023-06-04T05:02:53;3.80;;;3.70;;
6207;SDS011;3137;51.550;7.060;2023-06-04T05:05:20;4.00;;;3.83;;
6207;SDS011;3137;51.550;7.060;2023-06-04T05:07:48;4.27;;;4.17;;
6207;SDS011;3137;51.550;7.060;2023-06-04T05:10:15;5.37;;;5.20;;
6207;SDS011;3137;51.550;7.060;2023-06-04T05:12:53;4.37;;;4.07;;
6207;SDS011;3137;51.550;7.060;2023-06-04T05:15:30;4.90;;;4.50;;
6207;SDS011;3137;51.550;7.060;2023-06-04T05:17:57;3.90;;;3.80;;
6207;SDS011;3137;51.550;7.060;2023-06-04T05:20:29;4.27;;;4.27;;
6207;SDS011;3137;51.550;7.060;2023-06-04T05:22:56;4.23;;;3.53;;
6207;SDS011;3137;51.550;7.060;2023-06-04T05:25:23;7.30;;;4.03;;
6207;SDS011;3137;51.550;7.060;2023-06-04T05:27:50;4.27;;;4.10;;
6207;SDS011;3137;51.550;7.060;2023-06-04T05:30:18;4.50;;;4.23;;
6207;SDS011;3137;51.550;7.060;2023-06-04T05:32:45;4.07;;;4.07;;
6207;SDS011;3137;51.550;7.060;2023-06-04T05:35:14;3.87;;;3.87;;
6207;SDS011;3137;51.550;7.060;2023-06-04T05:37:42;4.80;;;3.53;;
6207;SDS011;3137;51.550;7.060;2023-06-04T05:40:13;4.53;;;4.43;;
6207;SDS011;3137;51.550;7.060;2023-06-04T05:42:40;3.97;;;3.43;;
6207;SDS011;3137;51.550;7.060;2023-06-04T05:45:08;4.17;;;4.03;;
6207;SDS011;3137;51.550;7.060;2023-06-04T05:47:36;4.00;;;3.90;;
6207;SDS011;3137;51.550;7.060;2023-06-04T05:50:03;5.43;;;4.10;;
6207;SDS011;3137;51.550;7.060;2023-06-04T05:52:32;6.03;;;3.70;;
6207;SDS011;3137;51.550;7.060;2023-06-04T05:55:00;3.47;;;3.47;;
6207;SDS011;3137;51.550;7.060;2023-06-04T05:57:26;3.30;;;3.30;;
6207;SDS011;3137;51.550;7.060;2023-06-04T05:59:53;3.60;;;3.50;;
6207;SDS011;3137;51.550;7.060;2023-06-04T06:02:19;4.03;;;3.93;;
6207;SDS011;3137;51.550;7.060;2023-06-04T06:04:46;3.47;;;3.47;;
6207;SDS011;3137;51.550;7.060;2023-06-04T06:07:12;3.67;;;3.67;;
6207;SDS011;3137;51.550;7.060;2023-06-04T06:09:39;3.60;;;3.60;;
6207;SDS011;3137;51.550;7.060;2023-06-04T06:12:06;3.20;;;3.20;;
6207;SDS011;3137;51.550;7.060;2023-06-04T06:14:34;3.73;;;3.63;;
6207;SDS011;3137;51.550;7.060;2023-06-04T06:17:01;6.13;;;3.30;;
6207;SDS011;3137;51.550;7.060;2023-06-04T06:19:29;3.53;;;3.47;;
6207;SDS011;3137;51.550;7.060;2023-06-04T06:21:55;4.63;;;3.40;;
6207;SDS011;3137;51.550;7.060;2023-06-04T06:24:26;4.30;;;3.43;;
6207;SDS011;3137;51.550;7.060;2023-06-04T06:26:52;3.37;;;3.17;;
6207;SDS011;3137;51.550;7.060;2023-06-04T06:29:19;2.90;;;2.90;;
6207;SDS011;3137;51.550;7.060;2023-06-04T06:31:47;3.20;;;3.10;;
6207;SDS011;3137;51.550;7.060;2023-06-04T06:34:13;2.80;;;2.80;;
6207;SDS011;3137;51.550;7.060;2023-06-04T06:36:40;3.30;;;3.30;;
6207;SDS011;3137;51.550;7.060;2023-06-04T06:39:06;2.97;;;2.97;;
6207;SDS011;3137;51.550;7.060;2023-06-04T06:41:33;3.60;;;3.37;;
6207;SDS011;3137;51.550;7.060;2023-06-04T06:44:00;3.53;;;3.53;;
6207;SDS011;3137;51.550;7.060;2023-06-04T06:46:26;3.53;;;3.53;;
6207;SDS011;3137;51.550;7.060;2023-06-04T06:48:53;3.90;;;3.70;;
6207;SDS011;3137;51.550;7.060;2023-06-04T06:51:19;3.60;;;3.50;;
6207;SDS011;3137;51.550;7.060;2023-06-04T06:53:46;3.77;;;3.30;;
6207;SDS011;3137;51.550;7.060;2023-06-04T06:56:13;3.57;;;3.27;;
6207;SDS011;3137;51.550;7.060;2023-06-04T06:58:40;3.37;;;3.17;;
6207;SDS011;3137;51.550;7.060;2023-06-04T07:01:06;3.10;;;3.10;;
6207;SDS011;3137;51.550;7.060;2023-06-04T07:03:33;3.53;;;3.53;;
6207;SDS011;3137;51.550;7.060;2023-06-04T07:06:00;8.80;;;3.27;;
6207;SDS011;3137;51.550;7.060;2023-06-04T07:08:26;3.47;;;3.47;;
6207;SDS011;3137;51.550;7.060;2023-06-04T07:10:53;3.33;;;3.33;;
6207;SDS011;3137;51.550;7.060;2023-06-04T07:13:19;2.87;;;2.87;;
6207;SDS011;3137;51.550;7.060;2023-06-04T07:15:46;3.57;;;3.57;;
6207;SDS011;3137;51.550;7.060;2023-06-04T07:18:12;2.87;;;2.87;;
6207;SDS011;3137;51.550;7.060;2023-06-04T07:20:38;3.43;;;3.20;;
6207;SDS011;3137;51.550;7.060;2023-06-04T07:23:05;4.27;;;3.17;;
6207;SDS011;3137;51.550;7.060;2023-06-04T07:25:33;3.40;;;3.30;;
6207;SDS011;3137;51.550;7.060;2023-06-04T07:28:00;3.53;;;3.40;;
6207;SDS011;3137;51.550;7.060;2023-06-04T07:30:30;3.33;;;3.33;;
6207;SDS011;3137;51.550;7.060;2023-06-04T07:32:58;3.40;;;2.70;;
6207;SDS011;3137;51.550;7.060;2023-06-04T07:35:24;3.47;;;3.27;;
6207;SDS011;3137;51.550;7.060;2023-06-04T07:37:51;2.93;;;2.93;;
6207;SDS011;3137;51.550;7.060;2023-06-04T07:40:17;4.23;;;3.37;;
6207;SDS011;3137;51.550;7.060;2023-06-04T07:42:45;3.10;;;3.10;;
6207;SDS011;3137;51.550;7.060;2023-06-04T07:45:12;3.30;;;3.10;;
6207;SDS011;3137;51.550;7.060;2023-06-04T07:47:38;3.33;;;3.33;;
6207;SDS011;3137;51.550;7.060;2023-06-04T07:50:05;3.17;;;2.50;;
6207;SDS011;3137;51.550;7.060;2023-06-04T07:52:32;2.90;;;2.90;;
6207;SDS011;3137;51.550;7.060;2023-06-04T07:54:59;2.83;;;2.73;;
6207;SDS011;3137;51.550;7.060;2023-06-04T07:57:26;2.97;;;2.77;;
6207;SDS011;3137;51.550;7.060;2023-06-04T07:59:53;3.67;;;3.37;;
6207;SDS011;3137;51.550;7.060;2023-06-04T08:02:19;3.17;;;2.93;;
6207;SDS011;3137;51.550;7.060;2023-06-04T08:04:46;3.20;;;3.20;;
6207;SDS011;3137;51.550;7.060;2023-06-04T08:07:13;2.87;;;2.87;;
6207;SDS011;3137;51.550;7.060;2023-06-04T08:09:39;3.67;;;3.43;;
6207;SDS011;3137;51.550;7.060;2023-06-04T08:12:06;3.00;;;3.00;;
6207;SDS011;3137;51.550;7.060;2023-06-04T08:14:36;4.03;;;3.70;;
6207;SDS011;3137;51.550;7.060;2023-06-04T08:17:02;3.43;;;3.43;;
6207;SDS011;3137;51.550;7.060;2023-06-04T08:19:28;3.57;;;3.57;;
6207;SDS011;3137;51.550;7.060;2023-06-04T08:21:55;3.40;;;3.30;;
6207;SDS011;3137;51.550;7.060;2023-06-04T08:24:21;3.20;;;3.20;;
6207;SDS011;3137;51.550;7.060;2023-06-04T08:26:48;3.40;;;3.30;;
6207;SDS011;3137;51.550;7.060;2023-06-04T08:29:16;7.03;;;3.50;;
6207;SDS011;3137;51.550;7.060;2023-06-04T08:31:42;3.37;;;3.37;;
6207;SDS011;3137;51.550;7.060;2023-06-04T08:34:09;3.37;;;3.37;;
6207;SDS011;3137;51.550;7.060;2023-06-04T08:36:35;3.70;;;3.70;;
6207;SDS011;3137;51.550;7.060;2023-06-04T08:39:02;3.73;;;3.63;;
6207;SDS011;3137;51.550;7.060;2023-06-04T08:41:40;4.10;;;4.10;;
6207;SDS011;3137;51.550;7.060;2023-06-04T08:44:10;4.03;;;3.73;;
6207;SDS011;3137;51.550;7.060;2023-06-04T08:46:37;4.30;;;4.20;;
6207;SDS011;3137;51.550;7.060;2023-06-04T08:49:08;7.40;;;4.70;;
6207;SDS011;3137;51.550;7.060;2023-06-04T08:51:36;4.73;;;4.63;;
6207;SDS011;3137;51.550;7.060;2023-06-04T08:54:07;4.97;;;4.23;;
6207;SDS011;3137;51.550;7.060;2023-06-04T08:56:34;4.63;;;4.53;;
6207;SDS011;3137;51.550;7.060;2023-06-04T08:59:05;5.67;;;5.23;;
6207;SDS011;3137;51.550;7.060;2023-06-04T09:01:34;10.13;;;5.30;;
6207;SDS011;3137;51.550;7.060;2023-06-04T09:04:04;4.70;;;4.60;;
6207;SDS011;3137;51.550;7.060;2023-06-04T09:06:33;6.80;;;5.07;;
6207;SDS011;3137;51.550;7.060;2023-06-04T09:09:03;5.43;;;4.97;;
6207;SDS011;3137;51.550;7.060;2023-06-04T09:11:33;5.40;;;5.40;;
6207;SDS011;3137;51.550;7.060;2023-06-04T09:14:03;5.20;;;4.90;;
6207;SDS011;3137;51.550;7.060;2023-06-04T09:16:41;4.80;;;4.60;;
6207;SDS011;3137;51.550;7.060;2023-06-04T09:19:18;5.67;;;5.67;;
6207;SDS011;3137;51.550;7.060;2023-06-04T09:21:52;6.13;;;4.63;;
6207;SDS011;3137;51.550;7.060;2023-06-04T09:24:19;5.03;;;4.70;;
6207;SDS011;3137;51.550;7.060;2023-06-04T09:26:47;5.80;;;5.60;;
6207;SDS011;3137;51.550;7.060;2023-06-04T09:29:15;5.37;;;5.00;;
6207;SDS011;3137;51.550;7.060;2023-06-04T09:31:57;4.77;;;4.63;;
6207;SDS011;3137;51.550;7.060;2023-06-04T09:34:27;4.20;;;4.20;;
6207;SDS011;3137;51.550;7.060;2023-06-04T09:36:55;4.70;;;4.40;;
6207;SDS011;3137;51.550;7.060;2023-06-04T09:39:22;4.40;;;4.20;;
6207;SDS011;3137;51.550;7.060;2023-06-04T09:41:59;3.83;;;3.73;;
6207;SDS011;3137;51.550;7.060;2023-06-04T09:44:27;3.40;;;3.20;;
6207;SDS011;3137;51.550;7.060;2023-06-04T09:46:55;3.60;;;3.50;;
6207;SDS011;3137;51.550;7.060;2023-06-04T09:49:23;4.13;;;3.93;;
6207;SDS011;3137;51.550;7.060;2023-06-04T09:51:49;14.97;;;3.53;;
6207;SDS011;3137;51.550;7.060;2023-06-04T09:54:16;3.97;;;3.67;;
6207;SDS011;3137;51.550;7.060;2023-06-04T09:56:43;3.90;;;3.90;;
6207;SDS011;3137;51.550;7.060;2023-06-04T09:59:09;4.47;;;4.20;;
6207;SDS011;3137;51.550;7.060;2023-06-04T10:01:38;3.90;;;3.73;;
6207;SDS011;3137;51.550;7.060;2023-06-04T10:04:09;4.00;;;4.00;;
6207;SDS011;3137;51.550;7.060;2023-06-04T10:06:39;3.77;;;3.63;;
6207;SDS011;3137;51.550;7.060;2023-06-04T10:09:07;6.47;;;3.57;;
6207;SDS011;3137;51.550;7.060;2023-06-04T10:11:37;3.77;;;3.67;;
6207;SDS011;3137;51.550;7.060;2023-06-04T10:14:19;3.10;;;3.10;;
6207;SDS011;3137;51.550;7.060;2023-06-04T10:16:49;4.63;;;3.87;;
6207;SDS011;3137;51.550;7.060;2023-06-04T10:19:16;3.20;;;3.13;;
6207;SDS011;3137;51.550;7.060;2023-06-04T10:21:44;4.33;;;3.33;;
6207;SDS011;3137;51.550;7.060;2023-06-04T10:24:12;3.73;;;3.53;;
6207;SDS011;3137;51.550;7.060;2023-06-04T10:26:40;6.53;;;3.80;;
6207;SDS011;3137;51.550;7.060;2023-06-04T10:29:08;3.63;;;3.40;;
6207;SDS011;3137;51.550;7.060;2023-06-04T10:31:37;6.60;;;4.03;;
6207;SDS011;3137;51.550;7.060;2023-06-04T10:34:04;4.37;;;4.13;;
6207;SDS011;3137;51.550;7.060;2023-06-04T10:36:31;4.37;;;3.87;;
6207;SDS011;3137;51.550;7.060;2023-06-04T10:38:57;3.97;;;3.73;;
6207;SDS011;3137;51.550;7.060;2023-06-04T10:41:24;4.70;;;4.43;;
6207;SDS011;3137;51.550;7.060;2023-06-04T10:43:51;5.93;;;4.40;;
6207;SDS011;3137;51.550;7.060;2023-06-04T10:46:36;4.50;;;4.17;;
6207;SDS011;3137;51.550;7.060;2023-06-04T10:49:05;4.40;;;4.30;;
6207;SDS011;3137;51.550;7.060;2023-06-04T10:51:32;4.33;;;3.93;;
6207;SDS011;3137;51.550;7.060;2023-06-04T10:54:00;4.43;;;4.33;;
6207;SDS011;3137;51.550;7.060;2023-06-04T10:56:29;6.10;;;3.80;;
6207;SDS011;3137;51.550;7.060;2023-06-04T10:59:02;5.80;;;4.07;;
6207;SDS011;3137;51.550;7.060;2023-06-04T11:01:40;4.10;;;4.00;;
6207;SDS011;3137;51.550;7.060;2023-06-04T11:04:06;4.00;;;4.00;;
6207;SDS011;3137;51.550;7.060;2023-06-04T11:06:33;3.83;;;3.50;;
6207;SDS011;3137;51.550;7.060;2023-06-04T11:09:04;4.10;;;3.90;;
6207;SDS011;3137;51.550;7.060;2023-06-04T11:11:32;4.27;;;4.27;;
6207;SDS011;3137;51.550;7.060;2023-06-04T11:14:08;3.20;;;3.20;;
6207;SDS011;3137;51.550;7.060;2023-06-04T11:16:36;4.30;;;4.20;;
6207;SDS011;3137;51.550;7.060;2023-06-04T11:19:02;3.87;;;3.87;;
6207;SDS011;3137;51.550;7.060;2023-06-04T11:21:29;3.57;;;3.57;;
6207;SDS011;3137;51.550;7.060;2023-06-04T11:23:59;4.23;;;3.93;;
6207;SDS011;3137;51.550;7.060;2023-06-04T11:26:33;3.30;;;3.30;;
6207;SDS011;3137;51.550;7.060;2023-06-04T11:29:07;4.27;;;3.87;;
6207;SDS011;3137;51.550;7.060;2023-06-04T11:31:47;6.50;;;3.90;;
6207;SDS011;3137;51.550;7.060;2023-06-04T11:34:23;4.20;;;4.00;;
6207;SDS011;3137;51.550;7.060;2023-06-04T11:36:51;3.70;;;3.70;;
6207;SDS011;3137;51.550;7.060;2023-06-04T11:39:19;4.40;;;4.00;;
6207;SDS011;3137;51.550;7.060;2023-06-04T11:41:46;4.30;;;4.30;;
6207;SDS011;3137;51.550;7.060;2023-06-04T11:44:14;4.63;;;4.43;;
6207;SDS011;3137;51.550;7.060;2023-06-04T11:46:41;4.70;;;4.60;;
6207;SDS011;3137;51.550;7.060;2023-06-04T11:49:12;6.13;;;4.27;;
6207;SDS011;3137;51.550;7.060;2023-06-04T11:51:48;6.27;;;5.23;;
6207;SDS011;3137;51.550;7.060;2023-06-04T11:54:16;5.20;;;4.63;;
6207;SDS011;3137;51.550;7.060;2023-06-04T11:56:43;10.50;;;4.23;;
6207;SDS011;3137;51.550;7.060;2023-06-04T11:59:11;4.93;;;4.67;;
6207;SDS011;3137;51.550;7.060;2023-06-04T12:01:40;5.50;;;3.47;;
6207;SDS011;3137;51.550;7.060;2023-06-04T12:04:14;5.10;;;4.57;;
6207;SDS011;3137;51.550;7.060;2023-06-04T12:06:53;4.27;;;4.23;;
6207;SDS011;3137;51.550;7.060;2023-06-04T12:09:23;3.83;;;3.83;;
6207;SDS011;3137;51.550;7.060;2023-06-04T12:11:50;4.93;;;4.50;;
6207;SDS011;3137;51.550;7.060;2023-06-04T12:14:27;4.27;;;4.17;;
6207;SDS011;3137;51.550;7.060;2023-06-04T12:16:58;4.73;;;4.63;;
6207;SDS011;3137;51.550;7.060;2023-06-04T12:19:27;4.57;;;4.47;;
6207;SDS011;3137;51.550;7.060;2023-06-04T12:22:04;4.33;;;4.33;;
6207;SDS011;3137;51.550;7.060;2023-06-04T12:24:33;4.97;;;4.50;;
6207;SDS011;3137;51.550;7.060;2023-06-04T12:27:04;4.53;;;4.50;;
6207;SDS011;3137;51.550;7.060;2023-06-04T12:29:32;4.90;;;4.80;;
6207;SDS011;3137;51.550;7.060;2023-06-04T12:34:40;4.13;;;4.13;;
6207;SDS011;3137;51.550;7.060;2023-06-04T12:37:07;5.27;;;4.90;;
6207;SDS011;3137;51.550;7.060;2023-06-04T12:39:34;4.47;;;4.47;;
6207;SDS011;3137;51.550;7.060;2023-06-04T12:42:03;4.40;;;4.23;;
6207;SDS011;3137;51.550;7.060;2023-06-04T12:44:31;4.30;;;4.30;;
6207;SDS011;3137;51.550;7.060;2023-06-04T12:47:00;3.33;;;3.33;;
6207;SDS011;3137;51.550;7.060;2023-06-04T12:49:27;6.87;;;4.60;;
6207;SDS011;3137;51.550;7.060;2023-06-04T12:51:53;4.13;;;4.10;;
6207;SDS011;3137;51.550;7.060;2023-06-04T12:54:20;4.50;;;4.20;;
6207;SDS011;3137;51.550;7.060;2023-06-04T12:56:46;4.03;;;3.93;;
6207;SDS011;3137;51.550;7.060;2023-06-04T12:59:13;4.20;;;4.10;;
6207;SDS011;3137;51.550;7.060;2023-06-04T13:01:39;4.23;;;3.93;;
6207;SDS011;3137;51.550;7.060;2023-06-04T13:04:06;3.23;;;3.23;;
6207;SDS011;3137;51.550;7.060;2023-06-04T13:06:34;6.03;;;4.60;;
6207;SDS011;3137;51.550;7.060;2023-06-04T13:09:02;4.93;;;4.50;;
6207;SDS011;3137;51.550;7.060;2023-06-04T13:11:36;3.70;;;3.70;;
6207;SDS011;3137;51.550;7.060;2023-06-04T13:14:07;3.77;;;3.77;;
6207;SDS011;3137;51.550;7.060;2023-06-04T13:16:35;4.37;;;4.37;;
6207;SDS011;3137;51.550;7.060;2023-06-04T13:19:02;4.33;;;4.03;;
6207;SDS011;3137;51.550;7.060;2023-06-04T13:21:29;4.67;;;4.13;;
6207;SDS011;3137;51.550;7.060;2023-06-04T13:23:55;4.80;;;4.50;;
6207;SDS011;3137;51.550;7.060;2023-06-04T13:26:22;4.10;;;4.10;;
6207;SDS011;3137;51.550;7.060;2023-06-04T13:28:49;4.33;;;4.23;;
6207;SDS011;3137;51.550;7.060;2023-06-04T13:31:15;8.03;;;3.80;;
6207;SDS011;3137;51.550;7.060;2023-06-04T13:33:42;3.67;;;3.67;;
6207;SDS011;3137;51.550;7.060;2023-06-04T13:36:08;2.90;;;2.90;;
6207;SDS011;3137;51.550;7.060;2023-06-04T13:38:35;3.07;;;3.00;;
6207;SDS011;3137;51.550;7.060;2023-06-04T13:41:01;3.80;;;3.70;;
6207;SDS011;3137;51.550;7.060;2023-06-04T13:43:28;4.20;;;4.10;;
6207;SDS011;3137;51.550;7.060;2023-06-04T13:45:54;3.57;;;3.57;;
6207;SDS011;3137;51.550;7.060;2023-06-04T13:48:21;3.60;;;3.53;;
6207;SDS011;3137;51.550;7.060;2023-06-04T13:50:47;3.27;;;3.20;;
6207;SDS011;3137;51.550;7.060;2023-06-04T13:53:14;3.67;;;3.57;;
6207;SDS011;3137;51.550;7.060;2023-06-04T13:55:40;3.70;;;3.57;;
6207;SDS011;3137;51.550;7.060;2023-06-04T13:58:07;6.80;;;3.67;;
6207;SDS011;3137;51.550;7.060;2023-06-04T14:00:33;3.40;;;3.40;;
6207;SDS011;3137;51.550;7.060;2023-06-04T14:03:00;6.43;;;3.53;;
6207;SDS011;3137;51.550;7.060;2023-06-04T14:05:27;3.17;;;2.93;;
6207;SDS011;3137;51.550;7.060;2023-06-04T14:07:54;3.30;;;3.20;;
6207;SDS011;3137;51.550;7.060;2023-06-04T14:10:20;5.03;;;3.60;;
6207;SDS011;3137;51.550;7.060;2023-06-04T14:12:47;5.37;;;3.30;;
6207;SDS011;3137;51.550;7.060;2023-06-04T14:15:13;3.57;;;3.37;;
6207;SDS011;3137;51.550;7.060;2023-06-04T14:17:40;9.10;;;3.80;;
6207;SDS011;3137;51.550;7.060;2023-06-04T14:20:07;4.13;;;3.73;;
6207;SDS011;3137;51.550;7.060;2023-06-04T14:22:34;9.90;;;3.40;;
6207;SDS011;3137;51.550;7.060;2023-06-04T14:25:02;5.30;;;3.77;;
6207;SDS011;3137;51.550;7.060;2023-06-04T14:27:29;8.43;;;3.53;;
6207;SDS011;3137;51.550;7.060;2023-06-04T14:29:56;3.67;;;3.67;;
6207;SDS011;3137;51.550;7.060;2023-06-04T14:32:23;3.93;;;3.63;;
6207;SDS011;3137;51.550;7.060;2023-06-04T14:34:49;3.63;;;3.43;;
6207;SDS011;3137;51.550;7.060;2023-06-04T14:37:16;10.37;;;3.63;;
6207;SDS011;3137;51.550;7.060;2023-06-04T14:39:42;3.77;;;3.77;;
6207;SDS011;3137;51.550;7.060;2023-06-04T14:42:09;3.10;;;3.00;;
6207;SDS011;3137;51.550;7.060;2023-06-04T14:44:35;9.83;;;3.50;;
6207;SDS011;3137;51.550;7.060;2023-06-04T14:47:01;2.87;;;2.67;;
6207;SDS011;3137;51.550;7.060;2023-06-04T14:49:28;3.07;;;2.97;;
6207;SDS011;3137;51.550;7.060;2023-06-04T14:51:54;3.17;;;3.17;;
6207;SDS011;3137;51.550;7.060;2023-06-04T14:54:21;2.97;;;2.97;;
6207;SDS011;3137;51.550;7.060;2023-06-04T14:56:47;3.37;;;3.27;;
6207;SDS011;3137;51.550;7.060;2023-06-04T14:59:14;3.17;;;3.17;;
6207;SDS011;3137;51.550;7.060;2023-06-04T15:01:41;8.60;;;2.80;;
6207;SDS011;3137;51.550;7.060;2023-06-04T15:04:08;3.30;;;3.30;;
6207;SDS011;3137;51.550;7.060;2023-06-04T15:06:35;2.60;;;2.60;;
6207;SDS011;3137;51.550;7.060;2023-06-04T15:09:01;2.97;;;2.93;;
6207;SDS011;3137;51.550;7.060;2023-06-04T15:11:29;3.33;;;3.03;;
6207;SDS011;3137;51.550;7.060;2023-06-04T15:13:56;5.57;;;3.10;;
6207;SDS011;3137;51.550;7.060;2023-06-04T15:16:22;3.10;;;3.10;;
6207;SDS011;3137;51.550;7.060;2023-06-04T15:18:49;3.40;;;3.10;;
6207;SDS011;3137;51.550;7.060;2023-06-04T15:21:15;3.33;;;3.17;;
6207;SDS011;3137;51.550;7.060;2023-06-04T15:23:42;4.20;;;3.60;;